createdAt,value
2023-04-12T00:02:06.698Z,38.93
2023-04-12T00:04:36.173Z,38.87
2023-04-12T00:07:06.183Z,39.32
2023-04-12T00:09:36.567Z,39.33
2023-04-12T00:12:06.962Z,39.16
2023-04-12T00:14:35.029Z,38.66
2023-04-12T00:17:03.137Z,38.78
2023-04-12T00:19:31.211Z,39.01
2023-04-12T00:21:59.400Z,38.99
2023-04-12T00:24:27.850Z,39.03
2023-04-12T00:26:56.426Z,39.08
2023-04-12T00:29:26.838Z,39.14
2023-04-12T00:31:54.931Z,39.84
2023-04-12T00:34:24.392Z,39.61
2023-04-12T00:36:52.433Z,39.80
2023-04-12T00:39:20.508Z,39.28
2023-04-12T00:41:48.662Z,39.85
2023-04-12T00:44:18.197Z,40.25
2023-04-12T00:46:47.902Z,40.83
2023-04-12T00:49:16.068Z,40.06
2023-04-12T00:52:04.528Z,40.66
2023-04-12T00:54:33.411Z,41.16
2023-04-12T00:57:02.363Z,41.33
2023-04-12T00:59:30.459Z,41.18
2023-04-12T01:02:01.059Z,41.24
2023-04-12T01:04:29.970Z,42.43
2023-04-12T01:07:10.170Z,42.14
2023-04-12T01:09:45.082Z,41.89
2023-04-12T01:12:30.018Z,42.01
2023-04-12T01:15:02.045Z,42.20
2023-04-12T01:17:38.127Z,41.96
2023-04-12T01:20:13.701Z,42.09
2023-04-12T01:22:53.543Z,42.35
2023-04-12T01:25:30.582Z,42.34
2023-04-12T01:28:02.249Z,42.47
2023-04-12T01:30:30.865Z,43.03
2023-04-12T01:33:01.023Z,43.09
2023-04-12T01:35:34.957Z,42.96
2023-04-12T01:38:04.444Z,43.39
2023-04-12T01:40:33.446Z,43.10
2023-04-12T01:43:09.924Z,43.34
2023-04-12T01:45:38.479Z,43.89
2023-04-12T01:48:08.956Z,43.12
2023-04-12T01:50:41.449Z,42.07
2023-04-12T01:53:12.256Z,41.55
2023-04-12T01:55:41.319Z,41.61
2023-04-12T01:58:14.104Z,41.27
2023-04-12T02:00:44.696Z,41.08
2023-04-12T02:03:13.993Z,42.08
2023-04-12T02:05:42.305Z,41.91
2023-04-12T02:08:10.415Z,41.94
2023-04-12T02:10:40.484Z,42.14
2023-04-12T02:13:08.576Z,42.00
2023-04-12T02:15:38.700Z,41.77
2023-04-12T02:18:07.650Z,42.40
2023-04-12T02:20:36.073Z,42.56
2023-04-12T02:23:04.210Z,42.74
2023-04-12T02:25:33.565Z,42.81
2023-04-12T02:28:02.395Z,42.97
2023-04-12T02:30:30.584Z,43.12
2023-04-12T02:33:00.267Z,43.04
2023-04-12T02:35:33.002Z,43.05
2023-04-12T02:38:08.670Z,43.23
2023-04-12T02:40:40.887Z,43.40
2023-04-12T02:43:11.101Z,44.07
2023-04-12T02:45:43.518Z,44.34
2023-04-12T02:48:13.584Z,44.74
2023-04-12T02:50:41.824Z,44.51
2023-04-12T02:53:17.265Z,45.48
2023-04-12T02:55:49.939Z,46.55
2023-04-12T02:58:24.488Z,45.31
2023-04-12T03:00:54.056Z,45.88
2023-04-12T03:03:32.118Z,45.52
2023-04-12T03:06:09.888Z,45.67
2023-04-12T03:08:39.878Z,46.11
2023-04-12T03:11:08.287Z,46.60
2023-04-12T03:13:36.836Z,46.69
2023-04-12T03:16:21.867Z,45.84
2023-04-12T03:18:53.809Z,46.26
2023-04-12T03:21:25.202Z,45.71
2023-04-12T03:23:54.974Z,45.12
2023-04-12T03:26:26.668Z,45.05
2023-04-12T03:29:11.415Z,45.50
2023-04-12T03:31:41.684Z,45.89
2023-04-12T03:34:12.035Z,45.43
2023-04-12T03:36:45.058Z,46.29
2023-04-12T03:39:22.324Z,46.54
2023-04-12T03:41:53.333Z,46.67
2023-04-12T03:44:27.083Z,46.44
2023-04-12T03:46:57.586Z,47.15
2023-04-12T03:49:28.867Z,47.45
2023-04-12T03:51:57.272Z,46.85
2023-04-12T03:54:26.314Z,46.36
2023-04-12T03:57:00.033Z,46.65
2023-04-12T03:59:49.486Z,46.46
2023-04-12T04:02:22.760Z,46.44
2023-04-12T04:04:55.236Z,46.10
2023-04-12T04:07:28.356Z,45.65
2023-04-12T04:09:57.765Z,45.14
2023-04-12T04:12:30.798Z,45.69
2023-04-12T04:14:59.220Z,45.28
2023-04-12T04:17:32.715Z,44.92
2023-04-12T04:20:07.091Z,45.33
2023-04-12T04:22:38.410Z,45.03
2023-04-12T04:25:07.247Z,46.00
2023-04-12T04:27:39.087Z,45.01
2023-04-12T04:30:10.571Z,45.51
2023-04-12T04:32:44.434Z,44.89
2023-04-12T04:35:17.017Z,45.83
2023-04-12T04:38:04.319Z,45.41
2023-04-12T04:40:33.803Z,45.66
2023-04-12T04:43:03.421Z,45.11
2023-04-12T04:45:36.979Z,44.51
2023-04-12T04:48:05.307Z,44.37
2023-04-12T04:50:34.821Z,44.10
2023-04-12T04:53:05.016Z,44.14
2023-04-12T04:55:34.715Z,43.87
2023-04-12T04:58:02.940Z,43.48
2023-04-12T05:00:36.796Z,42.74
2023-04-12T05:03:05.223Z,42.73
2023-04-12T05:05:34.896Z,42.49
2023-04-12T05:08:08.644Z,42.40
2023-04-12T05:10:37.466Z,42.14
2023-04-12T05:13:05.745Z,41.68
2023-04-12T05:15:35.190Z,41.70
2023-04-12T05:18:03.606Z,41.16
2023-04-12T05:20:32.005Z,41.38
2023-04-12T05:23:02.123Z,41.69
2023-04-12T05:25:30.324Z,41.71
2023-04-12T05:28:14.366Z,41.23
2023-04-12T05:30:43.465Z,40.83
2023-04-12T05:33:13.758Z,41.19
2023-04-12T05:35:46.421Z,40.49
2023-04-12T05:38:16.423Z,40.65
2023-04-12T05:40:47.767Z,39.82
2023-04-12T05:43:18.298Z,39.94
2023-04-12T05:45:46.628Z,40.35
2023-04-12T05:48:14.949Z,39.82
2023-04-12T05:50:43.093Z,39.24
2023-04-12T05:53:13.770Z,38.93
2023-04-12T05:55:43.518Z,38.41
2023-04-12T05:58:11.932Z,38.14
2023-04-12T06:00:42.170Z,37.86
2023-04-12T06:03:10.865Z,37.95
2023-04-12T06:05:40.028Z,37.01
2023-04-12T06:08:08.899Z,37.44
2023-04-12T06:10:37.013Z,36.37
2023-04-12T06:13:07.389Z,36.74
2023-04-12T06:15:36.477Z,35.34
2023-04-12T06:18:04.838Z,34.79
2023-04-12T06:20:32.954Z,34.64
2023-04-12T06:23:01.294Z,33.89
2023-04-12T06:25:29.469Z,33.92
2023-04-12T06:27:59.155Z,33.18
2023-04-12T06:30:29.877Z,34.17
2023-04-12T06:32:58.492Z,32.35
2023-04-12T06:35:26.884Z,33.03
2023-04-12T06:37:55.053Z,32.88
2023-04-12T06:40:23.152Z,32.23
2023-04-12T06:42:51.244Z,31.73
2023-04-12T06:45:23.535Z,31.20
2023-04-12T06:47:54.714Z,31.24
2023-04-12T06:50:22.841Z,30.91
2023-04-12T06:52:50.972Z,29.25
2023-04-12T06:55:19.883Z,28.07
2023-04-12T06:57:47.929Z,27.92
2023-04-12T07:00:16.442Z,27.60
2023-04-12T07:02:44.669Z,28.36
2023-04-12T07:05:14.896Z,28.44
2023-04-12T07:07:42.980Z,28.19
2023-04-12T07:10:11.403Z,28.11
2023-04-12T07:12:42.040Z,27.71
2023-04-12T07:15:10.559Z,27.26
2023-04-12T07:17:40.255Z,26.79
2023-04-12T07:20:08.719Z,26.95
2023-04-12T07:22:38.324Z,27.24
2023-04-12T07:25:10.322Z,27.31
2023-04-12T07:27:38.481Z,26.69
2023-04-12T07:30:07.043Z,27.31
2023-04-12T07:32:35.280Z,26.74
2023-04-12T07:35:03.696Z,26.48
2023-04-12T07:37:31.809Z,26.40
2023-04-12T07:40:02.087Z,26.42
2023-04-12T07:42:30.581Z,25.42
2023-04-12T07:44:58.950Z,25.17
2023-04-12T07:47:27.159Z,25.70
2023-04-12T07:49:55.372Z,25.27
2023-04-12T07:52:23.372Z,24.87
2023-04-12T07:54:51.407Z,25.04
2023-04-12T07:57:21.465Z,25.03
2023-04-12T07:59:49.549Z,23.86
2023-04-12T08:02:24.791Z,24.50
2023-04-12T08:04:53.237Z,23.77
2023-04-12T08:07:22.318Z,25.16
2023-04-12T08:09:51.120Z,25.15
2023-04-12T08:12:21.342Z,24.25
2023-04-12T08:14:49.395Z,24.02
2023-04-12T08:17:17.890Z,23.84
2023-04-12T08:19:46.445Z,23.88
2023-04-12T08:22:14.649Z,22.98
2023-04-12T08:24:42.694Z,22.79
2023-04-12T08:27:13.940Z,22.80
2023-04-12T08:29:43.517Z,22.23
2023-04-12T08:32:12.808Z,22.09
2023-04-12T08:34:42.391Z,22.35
2023-04-12T08:37:11.801Z,21.25
2023-04-12T08:39:40.212Z,21.33
2023-04-12T08:42:08.341Z,20.59
2023-04-12T08:44:38.014Z,20.81
2023-04-12T08:47:08.333Z,19.87
2023-04-12T08:49:36.575Z,19.76
2023-04-12T08:52:06.785Z,19.59
2023-04-12T08:54:35.422Z,19.71
2023-04-12T08:57:05.006Z,18.82
2023-04-12T08:59:33.607Z,18.40
2023-04-12T09:02:01.933Z,17.36
2023-04-12T09:04:31.636Z,16.58
2023-04-12T09:06:59.969Z,15.71
2023-04-12T09:09:43.988Z,14.72
2023-04-12T09:12:12.741Z,14.28
2023-04-12T09:14:43.777Z,14.48
2023-04-12T09:17:24.779Z,14.17
2023-04-12T09:19:56.076Z,13.53
2023-04-12T09:22:34.615Z,13.57
2023-04-12T09:25:02.970Z,14.20
2023-04-12T09:27:31.109Z,13.83
2023-04-12T09:30:08.526Z,13.65
2023-04-12T09:32:36.690Z,13.81
2023-04-12T09:35:06.728Z,13.51
2023-04-12T09:37:34.843Z,13.79
2023-04-12T09:40:04.627Z,13.11
2023-04-12T09:42:34.907Z,12.81
2023-04-12T09:45:19.780Z,12.77
2023-04-12T09:47:48.163Z,13.02
2023-04-12T09:50:23.121Z,12.43
2023-04-12T09:52:51.423Z,12.59
2023-04-12T09:55:19.686Z,13.29
2023-04-12T09:57:48.202Z,12.80
2023-04-12T10:00:18.522Z,12.13
2023-04-12T10:02:48.263Z,12.62
2023-04-12T10:05:18.371Z,12.52
2023-04-12T10:07:48.563Z,12.44
2023-04-12T10:10:18.148Z,12.12
2023-04-12T10:12:47.916Z,11.89
2023-04-12T10:15:18.117Z,12.15
2023-04-12T10:17:48.064Z,12.45
2023-04-12T10:20:17.195Z,12.50
2023-04-12T10:22:46.158Z,12.58
2023-04-12T10:25:16.136Z,11.96
2023-04-12T10:27:44.817Z,12.46
2023-04-12T10:30:23.489Z,11.80
2023-04-12T10:33:12.758Z,11.28
2023-04-12T10:35:52.098Z,10.95
2023-04-12T10:38:20.498Z,10.59
2023-04-12T10:41:06.920Z,10.48
2023-04-12T10:43:36.591Z,9.75
2023-04-12T10:46:06.875Z,10.15
2023-04-12T10:48:35.926Z,9.09
2023-04-12T10:51:14.174Z,9.45
2023-04-12T10:53:42.561Z,9.96
2023-04-12T10:56:37.708Z,9.08
2023-04-12T10:59:08.005Z,9.33
2023-04-12T11:01:42.397Z,8.74
2023-04-12T11:04:12.674Z,8.68
2023-04-12T11:06:45.131Z,9.02
2023-04-12T11:09:39.067Z,8.55
2023-04-12T11:12:14.273Z,8.80
2023-04-12T11:14:48.041Z,8.45
2023-04-12T11:17:23.234Z,8.58
2023-04-12T11:19:56.438Z,7.65
2023-04-12T11:22:25.547Z,7.49
2023-04-12T11:24:54.447Z,7.77
2023-04-12T11:27:23.264Z,8.01
2023-04-12T11:29:54.580Z,7.72
2023-04-12T11:32:25.839Z,8.33
2023-04-12T11:35:27.486Z,7.81
2023-04-12T11:37:57.487Z,8.15
2023-04-12T11:40:27.156Z,8.62
2023-04-12T11:42:57.855Z,8.37
2023-04-12T11:45:29.544Z,8.19
2023-04-12T11:47:58.346Z,8.95
2023-04-12T11:50:29.784Z,8.74
2023-04-12T11:53:10.219Z,9.51
2023-04-12T11:55:38.287Z,10.29
2023-04-12T11:58:06.527Z,10.68
2023-04-12T12:00:36.422Z,11.64
2023-04-12T12:03:08.385Z,12.17
2023-04-12T12:05:38.581Z,11.83
2023-04-12T12:08:08.008Z,11.58
2023-04-12T12:10:51.959Z,12.15
2023-04-12T12:13:25.258Z,12.90
2023-04-12T12:15:54.936Z,13.38
2023-04-12T12:18:26.645Z,14.25
2023-04-12T12:20:55.942Z,14.16
2023-04-12T12:23:31.236Z,14.34
2023-04-12T12:26:14.333Z,14.34
2023-04-12T12:28:50.281Z,14.73
2023-04-12T12:31:21.550Z,14.30
2023-04-12T12:33:49.938Z,14.21
2023-04-12T12:36:19.809Z,14.45
2023-04-12T12:38:49.299Z,14.95
2023-04-12T12:41:18.555Z,14.74
2023-04-12T12:43:47.403Z,15.38
2023-04-12T12:46:15.763Z,15.32
2023-04-12T12:48:45.428Z,14.89
2023-04-12T12:51:14.329Z,14.72
2023-04-12T12:53:42.491Z,15.27
2023-04-12T12:56:11.305Z,14.58
2023-04-12T12:58:40.982Z,15.25
2023-04-12T13:01:10.213Z,14.98
2023-04-12T13:03:38.492Z,15.44
2023-04-12T13:06:08.865Z,15.32
2023-04-12T13:08:37.331Z,15.44
2023-04-12T13:11:05.797Z,15.27
2023-04-12T13:13:33.878Z,15.26
2023-04-12T13:16:02.114Z,15.22
2023-04-12T13:18:30.198Z,15.59
2023-04-12T13:20:58.296Z,15.15
2023-04-12T13:23:27.857Z,15.66
2023-04-12T13:25:55.926Z,15.40
2023-04-12T13:28:23.907Z,15.84
2023-04-12T13:30:52.013Z,15.84
2023-04-12T13:33:22.168Z,16.13
2023-04-12T13:35:50.931Z,16.31
2023-04-12T13:38:19.083Z,16.60
2023-04-12T13:40:48.613Z,16.65
2023-04-12T13:43:17.074Z,16.08
2023-04-12T13:45:45.478Z,15.31
2023-04-12T13:48:13.658Z,15.89
2023-04-12T13:50:41.800Z,15.44
2023-04-12T13:53:09.902Z,15.82
2023-04-12T13:55:37.939Z,15.72
2023-04-12T13:58:07.405Z,15.62
2023-04-12T14:00:35.560Z,16.20
2023-04-12T14:03:03.945Z,16.29
2023-04-12T14:05:32.118Z,16.24
2023-04-12T14:08:00.190Z,16.29
2023-04-12T14:10:28.282Z,16.49
2023-04-12T14:12:56.356Z,16.71
2023-04-12T14:15:25.946Z,16.86
2023-04-12T14:17:54.327Z,17.33
2023-04-12T14:20:24.056Z,17.30
2023-04-12T14:22:52.258Z,17.49
2023-04-12T14:25:21.426Z,17.13
2023-04-12T14:27:49.561Z,17.39
2023-04-12T14:30:19.046Z,17.29
2023-04-12T14:32:49.586Z,17.44
2023-04-12T14:35:18.506Z,17.57
2023-04-12T14:37:47.763Z,17.97
2023-04-12T14:40:17.634Z,18.02
2023-04-12T14:42:45.745Z,18.12
2023-04-12T14:45:14.919Z,18.25
2023-04-12T14:47:43.091Z,17.65
2023-04-12T14:50:12.816Z,18.51
2023-04-12T14:52:40.898Z,18.09
2023-04-12T14:55:10.730Z,18.22
2023-04-12T14:57:40.046Z,18.16
2023-04-12T15:00:13.512Z,18.30
2023-04-12T15:02:42.616Z,18.32
2023-04-12T15:05:12.345Z,18.29
2023-04-12T15:07:41.204Z,18.73
2023-04-12T15:10:09.877Z,18.58
2023-04-12T15:12:38.091Z,19.13
2023-04-12T15:15:06.981Z,18.96
2023-04-12T15:17:35.853Z,18.73
2023-04-12T15:20:09.172Z,18.94
2023-04-12T15:22:38.727Z,19.01
2023-04-12T15:25:07.763Z,18.95
2023-04-12T15:27:35.870Z,18.54
2023-04-12T15:30:05.148Z,18.98
2023-04-12T15:32:36.556Z,19.41
2023-04-12T15:35:15.071Z,18.93
2023-04-12T15:37:52.651Z,19.23
2023-04-12T15:40:22.944Z,19.47
2023-04-12T15:42:51.172Z,19.34
2023-04-12T15:45:19.281Z,19.44
2023-04-12T15:47:47.567Z,19.50
2023-04-12T15:50:15.689Z,19.55
2023-04-12T15:52:44.388Z,19.33
2023-04-12T15:55:17.084Z,19.62
2023-04-12T15:57:45.460Z,19.54
2023-04-12T16:00:23.994Z,19.81
2023-04-12T16:02:56.313Z,19.71
2023-04-12T16:05:26.885Z,20.16
2023-04-12T16:07:56.887Z,20.37
2023-04-12T16:10:27.089Z,20.27
2023-04-12T16:12:56.568Z,20.33
2023-04-12T16:15:24.734Z,20.16
2023-04-12T16:17:54.690Z,20.17
2023-04-12T16:20:23.427Z,20.59
2023-04-12T16:22:54.301Z,19.93
2023-04-12T16:25:22.752Z,20.89
2023-04-12T16:27:52.377Z,20.43
2023-04-12T16:30:22.567Z,20.82
2023-04-12T16:32:52.268Z,20.66
2023-04-12T16:35:20.514Z,20.79
2023-04-12T16:37:48.883Z,20.44
2023-04-12T16:40:17.398Z,20.53
2023-04-12T16:42:45.962Z,20.50
2023-04-12T16:45:15.939Z,20.62
2023-04-12T16:47:44.114Z,20.39
2023-04-12T16:50:13.648Z,20.35
2023-04-12T16:52:42.075Z,20.28
2023-04-12T16:55:11.595Z,20.71
2023-04-12T16:57:41.299Z,20.75
2023-04-12T17:00:20.697Z,20.57
2023-04-12T17:02:51.625Z,20.76
2023-04-12T17:05:20.555Z,21.30
2023-04-12T17:07:49.921Z,21.05
2023-04-12T17:10:18.533Z,21.31
2023-04-12T17:12:46.911Z,21.25
2023-04-12T17:15:16.596Z,21.05
2023-04-12T17:17:44.851Z,21.64
2023-04-12T17:20:14.809Z,20.93
2023-04-12T17:22:43.030Z,21.60
2023-04-12T17:25:11.862Z,22.11
2023-04-12T17:27:41.119Z,22.64
2023-04-12T17:30:10.836Z,22.30
2023-04-12T17:32:39.402Z,22.72
2023-04-12T17:35:08.060Z,22.79
2023-04-12T17:37:38.365Z,22.83
2023-04-12T17:40:07.199Z,22.40
2023-04-12T17:42:35.474Z,23.03
2023-04-12T17:45:03.658Z,22.74
2023-04-12T17:47:33.971Z,22.61
2023-04-12T17:50:02.651Z,23.25
2023-04-12T17:52:32.181Z,22.83
2023-04-12T17:55:01.781Z,22.85
2023-04-12T17:57:31.475Z,23.24
2023-04-12T17:59:59.614Z,23.31
2023-04-12T18:02:28.044Z,23.69
2023-04-12T18:04:56.344Z,24.08
2023-04-12T18:07:24.581Z,24.02
2023-04-12T18:09:52.760Z,24.35
2023-04-12T18:12:22.508Z,24.47
2023-04-12T18:14:51.002Z,24.48
2023-04-12T18:17:19.076Z,24.23
2023-04-12T18:19:47.274Z,24.18
2023-04-12T18:22:15.349Z,24.22
2023-04-12T18:24:43.621Z,25.21
2023-04-12T18:27:11.688Z,24.97
2023-04-12T18:29:41.143Z,24.90
2023-04-12T18:32:09.213Z,25.43
2023-04-12T18:34:40.188Z,24.98
2023-04-12T18:37:08.462Z,25.48
2023-04-12T18:39:36.844Z,26.32
2023-04-12T18:42:05.097Z,26.04
2023-04-12T18:44:34.441Z,25.49
2023-04-12T18:47:03.982Z,26.54
2023-04-12T18:49:32.113Z,25.88
2023-04-12T18:52:00.251Z,26.54
2023-04-12T18:54:29.179Z,27.17
2023-04-12T18:57:01.002Z,25.43
2023-04-12T18:59:29.036Z,25.32
2023-04-12T19:01:57.206Z,25.41
2023-04-12T19:04:27.462Z,25.57
2023-04-12T19:06:57.182Z,25.45
2023-04-12T19:09:25.372Z,25.66
2023-04-12T19:11:55.570Z,25.73
2023-04-12T19:14:23.912Z,25.62
2023-04-12T19:16:53.141Z,26.21
2023-04-12T19:19:21.441Z,25.98
2023-04-12T19:21:50.843Z,25.67
2023-04-12T19:24:18.910Z,25.87
2023-04-12T19:26:48.207Z,26.49
2023-04-12T19:29:16.287Z,26.66
2023-04-12T19:31:47.342Z,26.94
2023-04-12T19:34:18.076Z,27.79
2023-04-12T19:36:46.273Z,27.44
2023-04-12T19:39:15.844Z,28.22
2023-04-12T19:41:43.947Z,28.04
2023-04-12T19:44:12.122Z,28.02
2023-04-12T19:46:40.412Z,28.06
2023-04-12T19:49:09.570Z,28.10
2023-04-12T19:51:37.886Z,28.72
2023-04-12T19:54:06.036Z,28.79
2023-04-12T19:56:35.472Z,28.71
2023-04-12T19:59:05.678Z,29.74
2023-04-12T20:01:35.968Z,29.04
2023-04-12T20:04:05.701Z,29.36
2023-04-12T20:06:33.975Z,28.61
2023-04-12T20:09:02.127Z,29.01
2023-04-12T20:11:30.838Z,29.37
2023-04-12T20:14:00.461Z,29.01
2023-04-12T20:16:28.652Z,29.00
2023-04-12T20:18:59.027Z,28.83
2023-04-12T20:21:27.943Z,29.35
2023-04-12T20:23:56.187Z,29.91
2023-04-12T20:26:27.530Z,30.10
2023-04-12T20:28:56.233Z,29.30
2023-04-12T20:31:26.146Z,29.68
2023-04-12T20:33:54.960Z,30.93
2023-04-12T20:36:23.157Z,29.75
2023-04-12T20:38:52.575Z,29.73
2023-04-12T20:41:21.116Z,29.80
2023-04-12T20:43:49.394Z,29.76
2023-04-12T20:46:19.360Z,29.19
2023-04-12T20:48:50.906Z,29.91
2023-04-12T20:51:21.058Z,30.47
2023-04-12T20:53:51.241Z,29.88
2023-04-12T20:56:19.990Z,29.70
2023-04-12T20:58:49.829Z,30.49
2023-04-12T21:01:18.872Z,29.53
2023-04-12T21:03:49.228Z,30.43
2023-04-12T21:06:18.036Z,30.04
2023-04-12T21:08:47.484Z,30.28
2023-04-12T21:11:16.500Z,29.49
2023-04-12T21:13:44.743Z,29.65
2023-04-12T21:16:16.247Z,29.95
2023-04-12T21:18:44.831Z,29.37
2023-04-12T21:21:14.233Z,29.80
2023-04-12T21:23:42.959Z,30.25
2023-04-12T21:26:11.092Z,28.73
2023-04-12T21:28:39.845Z,29.62
2023-04-12T21:31:08.292Z,29.38
2023-04-12T21:33:37.014Z,29.08
2023-04-12T21:36:05.334Z,30.22
2023-04-12T21:38:34.862Z,30.33
2023-04-12T21:41:06.356Z,29.64
2023-04-12T21:43:34.551Z,29.44
2023-04-12T21:46:02.758Z,29.34
2023-04-12T21:48:31.031Z,29.13
2023-04-12T21:50:59.098Z,28.94
2023-04-12T21:53:27.449Z,28.46
2023-04-12T21:55:56.955Z,28.06
2023-04-12T21:58:25.056Z,27.95
2023-04-12T22:00:53.798Z,28.00
2023-04-12T22:03:22.263Z,28.07
2023-04-12T22:06:03.740Z,28.22
2023-04-12T22:08:34.304Z,28.06
2023-04-12T22:11:04.239Z,28.51
2023-04-12T22:13:32.295Z,27.92
2023-04-12T22:16:00.847Z,28.33
2023-04-12T22:18:29.726Z,28.25
2023-04-12T22:20:57.987Z,28.37
2023-04-12T22:23:26.300Z,28.13
2023-04-12T22:25:58.510Z,28.30
2023-04-12T22:28:28.079Z,28.30
2023-04-12T22:30:57.237Z,28.56
2023-04-12T22:33:25.530Z,28.84
2023-04-12T22:35:53.883Z,28.30
2023-04-12T22:38:22.043Z,28.50
2023-04-12T22:40:51.182Z,28.78
2023-04-12T22:43:21.015Z,28.66
2023-04-12T22:45:54.051Z,28.80
2023-04-12T22:48:25.064Z,28.53
2023-04-12T22:50:54.624Z,28.98
2023-04-12T22:53:22.687Z,29.44
2023-04-12T22:55:50.888Z,30.10
2023-04-12T22:58:19.813Z,29.73
2023-04-12T23:00:50.764Z,30.27
2023-04-12T23:03:20.909Z,30.07
2023-04-12T23:05:49.272Z,30.49
2023-04-12T23:08:18.014Z,30.68
2023-04-12T23:10:46.299Z,31.18
2023-04-12T23:13:14.592Z,31.08
2023-04-12T23:15:43.080Z,30.96
2023-04-12T23:18:11.396Z,30.56
2023-04-12T23:20:41.111Z,31.49
2023-04-12T23:23:10.083Z,31.03
2023-04-12T23:25:41.713Z,31.48
2023-04-12T23:28:13.279Z,31.11
2023-04-12T23:30:43.776Z,31.78
2023-04-12T23:33:12.506Z,32.40
2023-04-12T23:35:42.574Z,32.51
2023-04-12T23:38:15.677Z,31.77
2023-04-12T23:40:44.436Z,32.28
2023-04-12T23:43:12.862Z,32.14
2023-04-12T23:45:41.053Z,32.46
2023-04-12T23:48:09.136Z,32.20
2023-04-12T23:50:37.257Z,31.65
2023-04-12T23:53:07.225Z,32.19
2023-04-12T23:55:35.239Z,31.35
2023-04-12T23:58:03.312Z,31.49
